createdAt,value
2023-01-05T00:00:40.846Z,48.45
2023-01-05T00:02:18.751Z,43.47
2023-01-05T00:03:55.381Z,41.22
2023-01-05T00:05:28.540Z,39.47
2023-01-05T00:07:01.733Z,40.15
2023-01-05T00:08:37.691Z,40.97
2023-01-05T00:10:32.154Z,39.63
2023-01-05T00:12:23.197Z,44.53
2023-01-05T00:14:14.070Z,47.33
2023-01-05T00:16:04.882Z,47.90
2023-01-05T00:17:55.450Z,72.57
2023-01-05T00:19:48.267Z,62.10
2023-01-05T00:21:39.227Z,44.05
2023-01-05T00:23:12.352Z,41.03
2023-01-05T00:24:45.900Z,44.60
2023-01-05T00:26:19.048Z,44.47
2023-01-05T00:27:54.282Z,40.22
2023-01-05T00:29:26.931Z,35.50
2023-01-05T00:31:00.633Z,36.92
2023-01-05T00:32:33.893Z,33.85
2023-01-05T00:34:07.135Z,31.20
2023-01-05T00:35:40.693Z,29.27
2023-01-05T00:37:13.560Z,34.53
2023-01-05T00:38:46.648Z,34.50
2023-01-05T00:40:23.054Z,33.92
2023-01-05T00:41:55.172Z,36.13
2023-01-05T00:43:28.447Z,37.25
2023-01-05T00:45:01.666Z,31.63
2023-01-05T00:46:35.481Z,31.65
2023-01-05T00:48:08.616Z,37.70
2023-01-05T00:49:42.272Z,29.90
2023-01-05T00:51:15.484Z,30.85
2023-01-05T00:52:49.345Z,30.05
2023-01-05T00:54:22.440Z,26.60
2023-01-05T00:56:00.693Z,24.10
2023-01-05T00:57:34.441Z,22.30
2023-01-05T00:59:07.950Z,21.55
2023-01-05T01:00:47.382Z,23.35
2023-01-05T01:02:21.332Z,22.45
2023-01-05T01:03:53.530Z,21.95
2023-01-05T01:05:26.841Z,22.60
2023-01-05T01:07:00.049Z,22.23
2023-01-05T01:08:33.544Z,22.60
2023-01-05T01:10:07.964Z,22.35
2023-01-05T01:11:42.844Z,22.30
2023-01-05T01:13:16.182Z,25.27
2023-01-05T01:14:50.309Z,23.35
2023-01-05T01:16:23.737Z,24.15
2023-01-05T01:17:57.150Z,23.73
2023-01-05T01:19:30.324Z,23.30
2023-01-05T01:21:03.499Z,20.60
2023-01-05T01:22:36.667Z,21.00
2023-01-05T01:24:10.606Z,22.45
2023-01-05T01:25:43.757Z,21.77
2023-01-05T01:27:18.270Z,21.50
2023-01-05T01:28:51.489Z,21.50
2023-01-05T01:30:25.197Z,22.15
2023-01-05T01:31:58.388Z,24.30
2023-01-05T01:33:31.753Z,23.10
2023-01-05T01:35:05.239Z,22.70
2023-01-05T01:36:38.656Z,23.08
2023-01-05T01:38:12.269Z,21.88
2023-01-05T01:39:45.700Z,22.90
2023-01-05T01:41:20.873Z,24.95
2023-01-05T01:42:55.625Z,24.20
2023-01-05T01:44:55.497Z,24.13
2023-01-05T01:46:40.527Z,21.88
2023-01-05T01:48:18.371Z,21.85
2023-01-05T01:49:52.465Z,22.63
2023-01-05T01:51:29.930Z,23.27
2023-01-05T01:53:06.833Z,22.65
2023-01-05T01:54:40.348Z,23.48
2023-01-05T01:56:19.880Z,23.48
2023-01-05T01:57:53.849Z,26.40
2023-01-05T01:59:30.533Z,28.45
2023-01-05T02:01:04.411Z,36.35
2023-01-05T02:02:37.814Z,36.55
2023-01-05T02:04:11.826Z,38.90
2023-01-05T02:05:46.305Z,37.40
2023-01-05T02:07:19.653Z,39.45
2023-01-05T02:08:52.960Z,38.90
2023-01-05T02:10:40.350Z,36.80
2023-01-05T02:12:30.186Z,39.85
2023-01-05T02:14:16.947Z,41.33
2023-01-05T02:16:02.000Z,38.90
2023-01-05T02:17:49.773Z,38.40
2023-01-05T02:20:16.833Z,33.65
2023-01-05T02:22:03.135Z,40.33
2023-01-05T02:24:28.403Z,46.05
2023-01-05T02:26:40.879Z,47.95
2023-01-05T02:28:29.228Z,45.35
2023-01-05T02:30:35.406Z,45.88
2023-01-05T02:32:15.399Z,46.28
2023-01-05T02:34:03.082Z,44.65
2023-01-05T02:35:43.754Z,42.30
2023-01-05T02:37:28.259Z,33.95
2023-01-05T02:39:09.058Z,41.05
2023-01-05T02:40:46.944Z,42.85
2023-01-05T02:42:23.868Z,42.03
2023-01-05T02:43:58.618Z,36.03
2023-01-05T02:45:32.381Z,32.70
2023-01-05T02:47:09.671Z,36.05
2023-01-05T02:48:47.215Z,30.65
2023-01-05T02:50:27.460Z,31.17
2023-01-05T02:52:02.920Z,31.05
2023-01-05T02:53:41.685Z,31.25
2023-01-05T02:55:20.032Z,29.67
2023-01-05T02:56:59.761Z,30.85
2023-01-05T02:58:35.913Z,32.35
2023-01-05T03:00:11.169Z,34.00
2023-01-05T03:01:49.404Z,34.25
2023-01-05T03:03:31.359Z,41.35
2023-01-05T03:05:09.487Z,40.58
2023-01-05T03:06:49.091Z,39.75
2023-01-05T03:08:32.355Z,37.10
2023-01-05T03:10:24.907Z,35.33
2023-01-05T03:12:18.136Z,34.03
2023-01-05T03:13:57.437Z,33.08
2023-01-05T03:15:33.829Z,32.85
2023-01-05T03:17:11.990Z,31.15
2023-01-05T03:19:10.331Z,29.45
2023-01-05T03:20:49.530Z,28.73
2023-01-05T03:22:44.880Z,29.40
2023-01-05T03:24:36.213Z,28.52
2023-01-05T03:26:29.757Z,28.30
2023-01-05T03:28:25.109Z,27.33
2023-01-05T03:30:16.593Z,28.45
2023-01-05T03:32:13.784Z,29.98
2023-01-05T03:34:09.141Z,28.95
2023-01-05T03:35:49.765Z,30.85
2023-01-05T03:37:27.997Z,31.63
2023-01-05T03:39:03.626Z,29.23
2023-01-05T03:40:40.330Z,31.60
2023-01-05T03:42:15.456Z,34.28
2023-01-05T03:43:49.677Z,32.45
2023-01-05T03:45:27.371Z,36.97
2023-01-05T03:47:00.917Z,37.10
2023-01-05T03:48:34.346Z,36.58
2023-01-05T03:50:08.969Z,32.42
2023-01-05T03:51:43.537Z,40.00
2023-01-05T03:53:17.740Z,38.15
2023-01-05T03:54:52.509Z,40.50
2023-01-05T03:56:25.731Z,40.10
2023-01-05T03:58:02.216Z,37.10
2023-01-05T03:59:35.482Z,37.33
2023-01-05T04:01:10.064Z,35.90
2023-01-05T04:02:44.724Z,36.60
2023-01-05T04:04:22.383Z,35.58
2023-01-05T04:05:55.563Z,34.08
2023-01-05T04:07:34.708Z,33.40
2023-01-05T04:09:08.608Z,30.73
2023-01-05T04:10:41.832Z,67.78
2023-01-05T04:12:14.677Z,38.03
2023-01-05T04:13:50.914Z,37.28
2023-01-05T04:15:25.265Z,33.47
2023-01-05T04:17:00.652Z,43.10
2023-01-05T04:18:33.940Z,61.67
2023-01-05T04:20:09.738Z,41.60
2023-01-05T04:21:43.352Z,42.45
2023-01-05T04:23:19.068Z,35.05
2023-01-05T04:24:52.297Z,36.25
2023-01-05T04:26:25.791Z,34.60
2023-01-05T04:27:59.174Z,35.55
2023-01-05T04:29:31.919Z,36.45
2023-01-05T04:31:06.882Z,37.25
2023-01-05T04:32:40.788Z,37.25
2023-01-05T04:34:18.150Z,36.20
2023-01-05T04:35:51.990Z,37.42
2023-01-05T04:37:27.067Z,34.55
2023-01-05T04:39:02.210Z,34.58
2023-01-05T04:40:40.037Z,35.60
2023-01-05T04:42:13.704Z,36.28
2023-01-05T04:43:47.583Z,48.22
2023-01-05T04:45:21.644Z,40.80
2023-01-05T04:46:54.822Z,39.67
2023-01-05T04:48:28.666Z,55.25
2023-01-05T04:50:02.462Z,66.18
2023-01-05T04:51:35.811Z,53.08
2023-01-05T04:53:09.599Z,55.22
2023-01-05T04:54:50.017Z,52.60
2023-01-05T04:56:24.333Z,47.92
2023-01-05T04:58:00.691Z,50.13
2023-01-05T04:59:34.174Z,56.22
2023-01-05T05:01:10.240Z,61.78
2023-01-05T05:02:45.237Z,55.95
2023-01-05T05:04:21.310Z,54.88
2023-01-05T05:05:56.416Z,57.25
2023-01-05T05:07:30.294Z,54.92
2023-01-05T05:09:05.212Z,51.20
2023-01-05T05:10:39.903Z,48.55
2023-01-05T05:12:15.554Z,49.03
2023-01-05T05:13:51.979Z,49.58
2023-01-05T05:15:25.397Z,48.40
2023-01-05T05:16:59.459Z,47.08
2023-01-05T05:18:31.657Z,46.80
2023-01-05T05:20:06.420Z,47.67
2023-01-05T05:21:39.793Z,47.38
2023-01-05T05:23:13.288Z,44.22
2023-01-05T05:24:46.733Z,46.85
2023-01-05T05:26:21.474Z,47.92
2023-01-05T05:27:56.159Z,50.72
2023-01-05T05:29:29.398Z,58.03
2023-01-05T05:31:02.696Z,63.10
2023-01-05T05:32:40.867Z,69.07
2023-01-05T05:34:17.459Z,60.85
2023-01-05T05:35:50.952Z,74.03
2023-01-05T05:37:24.157Z,74.65
2023-01-05T05:38:58.482Z,82.03
2023-01-05T05:40:32.179Z,75.90
2023-01-05T05:42:07.033Z,76.53
2023-01-05T05:43:40.179Z,69.68
2023-01-05T05:45:13.423Z,73.30
2023-01-05T05:46:46.765Z,75.22
2023-01-05T05:48:20.381Z,75.47
2023-01-05T05:49:53.471Z,73.95
2023-01-05T05:51:26.947Z,69.70
2023-01-05T05:53:02.582Z,66.78
2023-01-05T05:54:35.707Z,70.32
2023-01-05T05:56:09.414Z,63.78
2023-01-05T05:57:43.951Z,67.88
2023-01-05T05:59:17.204Z,65.05
2023-01-05T06:00:50.413Z,59.58
2023-01-05T06:02:23.893Z,55.58
2023-01-05T06:03:57.253Z,55.05
2023-01-05T06:05:30.381Z,69.00
2023-01-05T06:07:03.631Z,67.15
2023-01-05T06:08:36.985Z,61.67
2023-01-05T06:10:11.078Z,56.88
2023-01-05T06:11:44.506Z,60.05
2023-01-05T06:13:19.531Z,58.20
2023-01-05T06:14:52.734Z,59.50
2023-01-05T06:16:25.891Z,58.40
2023-01-05T06:17:59.102Z,59.10
2023-01-05T06:19:32.445Z,73.30
2023-01-05T06:21:05.917Z,67.32
2023-01-05T06:22:39.211Z,68.75
2023-01-05T06:24:12.393Z,69.38
2023-01-05T06:25:46.078Z,75.95
2023-01-05T06:27:19.315Z,79.65
2023-01-05T06:28:53.920Z,77.47
2023-01-05T06:30:27.085Z,71.07
2023-01-05T06:32:00.314Z,91.72
2023-01-05T06:33:33.780Z,83.97
2023-01-05T06:35:07.967Z,71.38
2023-01-05T06:36:41.299Z,65.03
2023-01-05T06:38:16.234Z,71.20
2023-01-05T06:39:49.529Z,95.80
2023-01-05T06:41:22.765Z,76.47
2023-01-05T06:42:56.130Z,55.15
2023-01-05T06:44:30.581Z,61.45
2023-01-05T06:46:03.958Z,62.88
2023-01-05T06:47:37.246Z,57.95
2023-01-05T06:49:14.840Z,62.25
2023-01-05T06:50:47.949Z,55.78
2023-01-05T06:52:21.069Z,58.33
2023-01-05T06:53:54.201Z,60.65
2023-01-05T06:55:27.589Z,84.18
2023-01-05T06:57:00.835Z,77.82
2023-01-05T06:58:34.205Z,79.32
2023-01-05T07:00:11.246Z,75.03
2023-01-05T07:01:44.456Z,77.40
2023-01-05T07:03:17.812Z,83.53
2023-01-05T07:04:51.068Z,76.20
2023-01-05T07:06:24.327Z,72.07
2023-01-05T07:07:57.463Z,68.60
2023-01-05T07:09:30.858Z,65.35
2023-01-05T07:11:04.116Z,68.70
2023-01-05T07:12:37.296Z,70.45
2023-01-05T07:14:10.837Z,62.17
2023-01-05T07:15:45.290Z,55.63
2023-01-05T07:17:18.399Z,47.95
2023-01-05T07:18:51.675Z,49.95
2023-01-05T07:20:25.098Z,46.83
2023-01-05T07:21:59.324Z,42.65
2023-01-05T07:23:32.454Z,57.20
2023-01-05T07:25:05.930Z,55.85
2023-01-05T07:26:39.477Z,55.28
2023-01-05T07:28:12.680Z,42.75
2023-01-05T07:29:46.344Z,47.63
2023-01-05T07:31:20.969Z,46.83
2023-01-05T07:32:54.187Z,45.38
2023-01-05T07:34:27.406Z,77.50
2023-01-05T07:36:02.739Z,60.42
2023-01-05T07:37:36.121Z,62.63
2023-01-05T07:39:09.450Z,78.43
2023-01-05T07:40:42.667Z,57.03
2023-01-05T07:42:16.032Z,50.05
2023-01-05T07:43:50.244Z,47.22
2023-01-05T07:45:23.719Z,51.25
2023-01-05T07:46:58.670Z,56.30
2023-01-05T07:48:31.840Z,51.38
2023-01-05T07:50:10.655Z,47.35
2023-01-05T07:51:44.151Z,47.85
2023-01-05T07:53:17.340Z,46.40
2023-01-05T07:54:50.557Z,46.67
2023-01-05T07:56:23.945Z,44.97
2023-01-05T07:57:57.405Z,50.70
2023-01-05T07:59:30.540Z,49.17
2023-01-05T08:01:07.914Z,45.28
2023-01-05T08:02:42.993Z,48.58
2023-01-05T08:04:16.258Z,45.75
2023-01-05T08:05:49.777Z,44.30
2023-01-05T08:07:23.171Z,41.65
2023-01-05T08:08:57.612Z,43.40
2023-01-05T08:10:30.155Z,42.10
2023-01-05T08:12:03.409Z,47.58
2023-01-05T08:13:54.053Z,49.13
2023-01-05T08:15:27.177Z,50.17
2023-01-05T08:17:00.563Z,52.30
2023-01-05T08:18:35.298Z,53.25
2023-01-05T08:20:09.408Z,55.95
2023-01-05T08:21:42.568Z,57.40
2023-01-05T08:23:25.216Z,55.92
2023-01-05T08:24:59.749Z,54.83
2023-01-05T08:26:33.156Z,53.30
2023-01-05T08:28:06.584Z,55.95
2023-01-05T08:29:40.039Z,61.30
2023-01-05T08:31:19.470Z,60.55
2023-01-05T08:32:53.287Z,56.55
2023-01-05T08:34:34.611Z,53.17
2023-01-05T08:36:13.192Z,56.08
2023-01-05T08:37:46.762Z,54.70
2023-01-05T08:39:20.030Z,53.88
2023-01-05T08:40:53.206Z,55.08
2023-01-05T08:42:26.471Z,52.90
2023-01-05T08:44:02.256Z,52.00
2023-01-05T08:45:35.592Z,49.38
2023-01-05T08:47:08.970Z,51.80
2023-01-05T08:48:42.242Z,51.17
2023-01-05T08:50:16.821Z,50.25
2023-01-05T08:51:50.009Z,54.70
2023-01-05T08:53:23.218Z,57.03
2023-01-05T08:54:56.583Z,54.25
2023-01-05T08:56:34.813Z,57.15
2023-01-05T08:58:11.314Z,55.45
2023-01-05T08:59:44.471Z,56.67
2023-01-05T09:01:19.544Z,55.50
2023-01-05T09:02:53.047Z,53.72
2023-01-05T09:04:27.731Z,53.53
2023-01-05T09:06:03.568Z,53.72
2023-01-05T09:07:38.002Z,48.72
2023-01-05T09:09:11.680Z,51.05
2023-01-05T09:10:45.021Z,49.83
2023-01-05T09:12:18.273Z,45.45
2023-01-05T09:13:54.207Z,43.10
2023-01-05T09:15:27.607Z,40.90
2023-01-05T09:17:08.756Z,39.85
2023-01-05T09:18:43.481Z,37.15
2023-01-05T09:20:16.781Z,37.20
2023-01-05T09:21:52.573Z,33.92
2023-01-05T09:23:25.828Z,34.95
2023-01-05T09:24:59.009Z,34.72
2023-01-05T09:26:32.274Z,33.70
2023-01-05T09:28:05.710Z,34.17
2023-01-05T09:29:38.817Z,33.42
2023-01-05T09:31:13.330Z,35.03
2023-01-05T09:32:46.849Z,34.10
2023-01-05T09:34:20.201Z,34.20
2023-01-05T09:35:56.609Z,37.40
2023-01-05T09:37:31.180Z,40.40
2023-01-05T09:39:05.075Z,41.30
2023-01-05T09:40:42.196Z,40.45
2023-01-05T09:42:18.451Z,39.30
2023-01-05T09:43:56.580Z,36.13
2023-01-05T09:45:30.442Z,34.28
2023-01-05T09:47:06.797Z,34.05
2023-01-05T09:48:43.237Z,36.80
2023-01-05T09:50:21.550Z,32.47
2023-01-05T09:51:59.695Z,34.22
2023-01-05T09:53:35.112Z,34.80
2023-01-05T09:55:17.824Z,33.05
2023-01-05T09:57:09.245Z,31.38
2023-01-05T09:58:45.494Z,29.17
2023-01-05T10:00:19.550Z,29.38
2023-01-05T10:01:55.784Z,33.50
2023-01-05T10:04:02.276Z,32.85
2023-01-05T10:05:25.124Z,31.40
2023-01-05T10:07:02.992Z,33.83
2023-01-05T10:08:41.907Z,32.33
2023-01-05T10:10:30.405Z,33.70
2023-01-05T10:12:31.675Z,29.52
2023-01-05T10:14:11.065Z,25.92
2023-01-05T10:15:49.581Z,26.60
2023-01-05T10:17:44.998Z,23.10
2023-01-05T10:19:19.990Z,23.40
2023-01-05T10:21:11.170Z,26.58
2023-01-05T10:22:54.085Z,22.70
2023-01-05T10:24:38.480Z,24.30
2023-01-05T10:26:18.769Z,26.05
2023-01-05T10:27:59.510Z,26.17
2023-01-05T10:29:40.435Z,24.25
2023-01-05T10:31:23.924Z,25.38
2023-01-05T10:34:59.046Z,26.80
2023-01-05T10:38:49.529Z,28.05
2023-01-05T10:40:35.761Z,25.95
2023-01-05T10:42:15.991Z,23.48
2023-01-05T10:44:09.276Z,26.00
2023-01-05T10:46:11.154Z,27.55
2023-01-05T10:47:39.463Z,26.92
2023-01-05T10:49:18.678Z,27.85
2023-01-05T10:50:55.646Z,29.85
2023-01-05T10:52:28.839Z,25.60
2023-01-05T10:54:04.400Z,24.42
2023-01-05T10:55:51.325Z,25.60
2023-01-05T10:57:48.507Z,23.40
2023-01-05T10:59:22.041Z,24.05
2023-01-05T11:00:58.036Z,24.38
2023-01-05T11:02:35.561Z,21.35
2023-01-05T11:06:09.395Z,20.95
2023-01-05T11:07:50.497Z,21.77
2023-01-05T11:09:26.750Z,19.80
2023-01-05T11:11:03.012Z,19.92
2023-01-05T11:12:36.491Z,17.02
2023-01-05T11:14:16.412Z,16.92
2023-01-05T11:15:54.955Z,17.70
2023-01-05T11:17:30.327Z,18.42
2023-01-05T11:19:07.929Z,22.00
2023-01-05T11:21:02.239Z,25.50
2023-01-05T11:22:39.929Z,37.40
2023-01-05T11:24:29.313Z,43.50
2023-01-05T11:26:21.389Z,27.95
2023-01-05T11:28:12.800Z,23.77
2023-01-05T11:29:46.266Z,23.70
2023-01-05T11:31:19.569Z,23.20
2023-01-05T11:32:52.809Z,24.10
2023-01-05T11:34:38.168Z,24.55
2023-01-05T11:36:16.234Z,28.83
2023-01-05T11:37:50.780Z,29.98
2023-01-05T11:39:30.169Z,29.25
2023-01-05T11:41:03.667Z,33.00
2023-01-05T11:42:42.846Z,31.20
2023-01-05T11:44:22.467Z,29.27
2023-01-05T11:45:57.217Z,29.88
2023-01-05T11:47:43.167Z,29.25
2023-01-05T11:49:20.697Z,27.92
2023-01-05T11:50:57.707Z,26.63
2023-01-05T11:52:36.850Z,27.88
2023-01-05T11:54:33.937Z,25.05
2023-01-05T11:56:20.046Z,25.15
2023-01-05T11:58:00.048Z,26.48
2023-01-05T11:59:33.558Z,23.55
2023-01-05T12:01:34.305Z,26.70
2023-01-05T12:03:29.866Z,24.63
2023-01-05T12:05:20.094Z,24.92
2023-01-05T12:07:05.857Z,23.33
2023-01-05T12:08:47.946Z,24.50
2023-01-05T12:10:36.589Z,22.95
2023-01-05T12:12:27.165Z,23.08
2023-01-05T12:14:21.271Z,21.67
2023-01-05T12:16:06.724Z,24.15
2023-01-05T12:17:50.718Z,14.02
2023-01-05T12:19:55.468Z,16.58
2023-01-05T12:21:32.372Z,14.82
2023-01-05T12:23:36.203Z,15.75
2023-01-05T12:25:30.237Z,16.15
2023-01-05T12:27:17.713Z,15.10
2023-01-05T12:34:01.697Z,15.75
2023-01-05T12:35:30.663Z,16.63
2023-01-05T12:37:18.028Z,15.43
2023-01-05T12:39:03.913Z,18.83
2023-01-05T12:40:50.615Z,18.92
2023-01-05T12:42:42.131Z,18.20
2023-01-05T12:44:43.947Z,18.40
2023-01-05T12:46:40.279Z,20.70
2023-01-05T12:48:18.855Z,20.67
2023-01-05T12:49:56.450Z,21.75
2023-01-05T12:51:35.032Z,19.08
2023-01-05T12:53:19.220Z,18.33
2023-01-05T12:54:57.842Z,19.70
2023-01-05T12:56:37.061Z,21.35
2023-01-05T12:58:18.479Z,22.27
2023-01-05T12:59:58.364Z,26.63
2023-01-05T13:01:36.387Z,26.20
2023-01-05T13:03:19.480Z,22.92
2023-01-05T13:04:57.577Z,25.58
2023-01-05T13:06:37.986Z,25.55
2023-01-05T13:08:18.562Z,22.90
2023-01-05T13:10:02.577Z,24.27
2023-01-05T13:11:39.936Z,22.40
2023-01-05T13:13:17.470Z,13.00
2023-01-05T13:15:03.246Z,26.00
2023-01-05T13:16:41.318Z,31.90
2023-01-05T13:18:18.909Z,20.15
2023-01-05T13:20:01.996Z,24.10
2023-01-05T13:21:38.331Z,36.47
2023-01-05T13:23:17.723Z,23.80
2023-01-05T13:24:56.489Z,14.07
2023-01-05T13:26:37.484Z,16.90
2023-01-05T13:28:20.587Z,23.17
2023-01-05T13:29:59.485Z,21.77
2023-01-05T13:32:09.368Z,36.22
2023-01-05T13:34:00.466Z,22.63
2023-01-05T13:35:47.185Z,24.08
2023-01-05T13:37:39.440Z,33.15
2023-01-05T13:39:30.817Z,25.10
2023-01-05T13:41:18.919Z,22.92
2023-01-05T13:43:15.365Z,17.77
2023-01-05T13:45:14.344Z,10.68
2023-01-05T13:47:03.024Z,6.20
2023-01-05T13:49:06.918Z,8.90
2023-01-05T13:50:57.100Z,5.20
2023-01-05T13:52:47.082Z,5.05
2023-01-05T13:54:26.870Z,3.15
2023-01-05T13:56:03.903Z,4.22
2023-01-05T13:57:40.186Z,2.95
2023-01-05T13:59:34.519Z,3.97
2023-01-05T14:01:15.020Z,3.90
2023-01-05T14:03:07.314Z,4.75
2023-01-05T14:04:47.526Z,5.43
2023-01-05T14:06:24.757Z,6.15
2023-01-05T14:08:00.540Z,6.15
2023-01-05T14:09:39.504Z,5.35
2023-01-05T14:11:15.946Z,5.15
2023-01-05T14:12:51.316Z,7.07
2023-01-05T14:16:39.104Z,5.85
2023-01-05T14:18:14.372Z,5.47
2023-01-05T14:19:53.755Z,6.93
2023-01-05T14:22:00.460Z,6.03
2023-01-05T14:23:59.596Z,10.63
2023-01-05T14:25:49.667Z,8.88
2023-01-05T14:27:23.745Z,7.60
2023-01-05T14:28:56.913Z,8.07
2023-01-05T14:30:30.781Z,9.93
2023-01-05T14:32:08.860Z,10.02
2023-01-05T14:33:51.045Z,8.55
2023-01-05T14:35:31.952Z,8.63
2023-01-05T14:37:07.929Z,9.10
2023-01-05T14:38:49.221Z,8.88
2023-01-05T14:40:30.119Z,9.80
2023-01-05T14:42:09.635Z,12.98
2023-01-05T14:43:42.948Z,10.85
2023-01-05T14:45:23.970Z,10.73
2023-01-05T14:46:58.689Z,11.27
2023-01-05T14:48:34.851Z,10.23
2023-01-05T14:50:31.030Z,8.65
2023-01-05T14:52:06.416Z,10.18
2023-01-05T14:53:45.078Z,10.70
2023-01-05T14:55:37.157Z,9.90
2023-01-05T14:57:39.750Z,13.40
2023-01-05T14:59:22.163Z,13.18
2023-01-05T15:00:58.308Z,11.43
2023-01-05T15:02:36.183Z,12.98
2023-01-05T15:04:14.225Z,13.70
2023-01-05T15:05:56.735Z,11.75
2023-01-05T15:09:44.324Z,32.92
2023-01-05T15:11:44.827Z,23.83
2023-01-05T15:14:07.500Z,29.63
2023-01-05T15:15:47.625Z,25.52
2023-01-05T15:17:48.459Z,25.80
2023-01-05T15:19:48.562Z,37.00
2023-01-05T15:21:49.606Z,26.42
2023-01-05T15:24:10.744Z,59.47
2023-01-05T15:26:07.958Z,39.92
2023-01-05T15:27:59.175Z,84.32
2023-01-05T15:29:52.415Z,80.25
2023-01-05T15:31:40.141Z,63.35
2023-01-05T15:33:17.828Z,69.18
2023-01-05T15:34:56.569Z,70.15
2023-01-05T15:36:39.981Z,73.50
2023-01-05T15:38:24.693Z,79.13
2023-01-05T15:40:00.939Z,74.85
2023-01-05T15:41:34.556Z,79.88
2023-01-05T15:43:16.771Z,67.95
2023-01-05T15:44:52.616Z,66.90
2023-01-05T15:46:34.032Z,67.03
2023-01-05T15:48:11.214Z,70.07
2023-01-05T15:49:46.102Z,47.35
2023-01-05T15:51:28.046Z,39.88
2023-01-05T15:53:03.505Z,36.80
2023-01-05T15:54:36.950Z,24.88
2023-01-05T15:56:39.776Z,31.23
2023-01-05T15:58:16.790Z,22.13
2023-01-05T15:59:52.031Z,23.92
2023-01-05T16:01:27.572Z,18.00
2023-01-05T16:03:01.342Z,23.75
2023-01-05T16:04:35.351Z,43.63
2023-01-05T16:06:14.929Z,72.70
2023-01-05T16:08:06.522Z,80.70
2023-01-05T16:09:42.654Z,71.53
2023-01-05T16:11:20.702Z,62.17
2023-01-05T16:13:00.135Z,54.40
2023-01-05T16:14:39.324Z,46.60
2023-01-05T16:16:50.479Z,47.25
2023-01-05T16:18:26.800Z,44.15
2023-01-05T16:20:02.772Z,44.60
2023-01-05T16:21:41.796Z,28.48
2023-01-05T16:23:18.722Z,32.05
2023-01-05T16:25:00.637Z,34.15
2023-01-05T16:26:37.561Z,21.88
2023-01-05T16:28:18.064Z,23.08
2023-01-05T16:30:31.386Z,28.88
2023-01-05T16:34:38.076Z,27.17
2023-01-05T16:36:19.191Z,23.73
2023-01-05T16:38:17.344Z,71.60
2023-01-05T16:39:52.363Z,27.52
2023-01-05T16:41:28.554Z,27.75
2023-01-05T16:43:01.331Z,19.25
2023-01-05T16:44:36.590Z,21.40
2023-01-05T16:46:35.570Z,25.10
2023-01-05T16:48:47.064Z,19.70
2023-01-05T16:50:54.097Z,15.73
2023-01-05T16:52:35.912Z,19.08
2023-01-05T16:54:22.688Z,17.40
2023-01-05T16:55:59.543Z,14.70
2023-01-05T16:57:41.315Z,20.65
2023-01-05T16:59:34.334Z,20.27
2023-01-05T17:01:28.210Z,20.08
2023-01-05T17:03:02.947Z,20.60
2023-01-05T17:04:36.171Z,14.75
2023-01-05T17:06:20.181Z,21.15
2023-01-05T17:08:00.668Z,19.02
2023-01-05T17:09:35.377Z,21.65
2023-01-05T17:11:12.757Z,25.70
2023-01-05T17:12:54.617Z,28.75
2023-01-05T17:14:29.670Z,28.17
2023-01-05T17:16:04.333Z,27.90
2023-01-05T17:17:37.578Z,22.25
2023-01-05T17:19:13.804Z,20.13
2023-01-05T17:20:47.621Z,12.93
2023-01-05T17:22:21.885Z,22.48
2023-01-05T17:23:58.168Z,22.17
2023-01-05T17:25:34.828Z,20.73
2023-01-05T17:27:10.882Z,12.20
2023-01-05T17:28:45.656Z,17.20
2023-01-05T17:30:23.569Z,24.42
2023-01-05T17:31:57.563Z,28.38
2023-01-05T17:33:31.603Z,13.75
2023-01-05T17:36:44.048Z,13.75
2023-01-05T17:38:17.356Z,14.50
2023-01-05T17:39:50.907Z,12.20
2023-01-05T17:41:24.352Z,13.80
2023-01-05T17:42:57.612Z,13.77
2023-01-05T17:44:32.305Z,14.40
2023-01-05T17:46:05.862Z,11.30
2023-01-05T17:47:39.462Z,10.75
2023-01-05T17:49:15.377Z,36.00
2023-01-05T17:50:49.015Z,27.30
2023-01-05T17:52:22.347Z,26.02
2023-01-05T17:53:56.382Z,15.65
2023-01-05T17:55:30.683Z,23.17
2023-01-05T17:57:04.366Z,11.85
2023-01-05T17:58:38.000Z,12.88
2023-01-05T18:00:16.878Z,15.43
2023-01-05T18:01:55.279Z,11.82
2023-01-05T18:03:29.109Z,31.92
2023-01-05T18:05:02.900Z,15.10
2023-01-05T18:06:36.945Z,20.60
2023-01-05T18:08:11.607Z,27.58
2023-01-05T18:09:45.702Z,26.75
2023-01-05T18:11:19.401Z,27.85
2023-01-05T18:12:53.285Z,46.38
2023-01-05T18:14:27.095Z,63.97
2023-01-05T18:16:08.008Z,61.67
2023-01-05T18:17:44.863Z,52.80
2023-01-05T18:19:18.978Z,25.27
2023-01-05T18:21:06.352Z,23.38
2023-01-05T18:22:41.032Z,14.48
2023-01-05T18:24:14.986Z,18.17
2023-01-05T18:27:46.105Z,22.55
2023-01-05T18:29:28.089Z,26.30
2023-01-05T18:31:03.225Z,26.92
2023-01-05T18:32:36.454Z,64.53
2023-01-05T18:34:10.422Z,74.30
2023-01-05T18:35:44.279Z,87.03
2023-01-05T18:37:21.945Z,83.68
2023-01-05T18:38:55.457Z,90.47
2023-01-05T18:40:29.425Z,49.17
2023-01-05T18:42:03.000Z,75.95
2023-01-05T18:43:36.572Z,71.88
2023-01-05T18:45:25.559Z,58.95
2023-01-05T18:47:00.859Z,73.65
2023-01-05T18:48:34.290Z,64.20
2023-01-05T18:50:09.039Z,51.22
2023-01-05T18:51:42.703Z,61.28
2023-01-05T18:53:17.202Z,76.95
2023-01-05T18:54:50.763Z,92.57
2023-01-05T18:56:24.337Z,72.57
2023-01-05T18:57:57.967Z,62.50
2023-01-05T18:59:32.010Z,51.97
2023-01-05T19:01:09.798Z,38.17
2023-01-05T19:02:44.521Z,33.33
2023-01-05T19:04:21.878Z,28.35
2023-01-05T19:05:55.342Z,23.80
2023-01-05T19:07:28.480Z,24.73
2023-01-05T19:09:03.556Z,22.75
2023-01-05T19:10:37.040Z,14.48
2023-01-05T19:12:11.200Z,19.75
2023-01-05T19:13:45.505Z,24.63
2023-01-05T19:15:19.021Z,22.80
2023-01-05T19:16:52.565Z,22.42
2023-01-05T19:18:27.660Z,25.75
2023-01-05T19:20:00.838Z,24.00
2023-01-05T19:21:36.105Z,26.25
2023-01-05T19:23:09.401Z,41.42
2023-01-05T19:24:42.811Z,47.25
2023-01-05T19:26:16.017Z,49.33
2023-01-05T19:27:49.347Z,49.35
2023-01-05T19:29:24.750Z,47.95
2023-01-05T19:31:08.318Z,45.25
2023-01-05T19:32:44.657Z,45.88
2023-01-05T19:34:19.995Z,45.40
2023-01-05T19:35:53.445Z,53.45
2023-01-05T19:37:26.800Z,49.50
2023-01-05T19:39:02.051Z,56.22
2023-01-05T19:40:35.779Z,77.95
2023-01-05T19:42:09.602Z,71.57
2023-01-05T19:43:43.740Z,66.13
2023-01-05T19:45:17.349Z,40.58
2023-01-05T19:46:53.429Z,24.80
2023-01-05T19:48:26.660Z,25.15
2023-01-05T19:50:01.721Z,23.52
2023-01-05T19:51:35.393Z,21.73
2023-01-05T19:53:08.821Z,19.55
2023-01-05T19:54:42.916Z,20.38
2023-01-05T19:56:17.261Z,18.30
2023-01-05T19:57:51.172Z,21.85
2023-01-05T19:59:33.191Z,22.02
2023-01-05T20:01:08.066Z,22.00
2023-01-05T20:02:42.270Z,22.10
2023-01-05T20:04:15.820Z,20.23
2023-01-05T20:05:50.838Z,21.60
2023-01-05T20:07:24.087Z,16.23
2023-01-05T20:08:59.690Z,17.92
2023-01-05T20:10:33.163Z,22.25
2023-01-05T20:12:14.515Z,22.58
2023-01-05T20:13:53.271Z,21.10
2023-01-05T20:15:26.516Z,27.52
2023-01-05T20:17:02.578Z,24.45
2023-01-05T20:18:36.679Z,19.05
2023-01-05T20:20:12.292Z,19.25
2023-01-05T20:21:47.531Z,18.25
2023-01-05T20:23:20.879Z,15.32
2023-01-05T20:24:54.350Z,18.55
2023-01-05T20:26:27.611Z,15.88
2023-01-05T20:28:00.770Z,16.75
2023-01-05T20:29:33.984Z,15.80
2023-01-05T20:31:16.788Z,14.07
2023-01-05T20:32:49.944Z,19.20
2023-01-05T20:34:25.395Z,15.27
2023-01-05T20:35:59.216Z,14.93
2023-01-05T20:37:34.234Z,15.77
2023-01-05T20:39:09.543Z,13.48
2023-01-05T20:40:42.769Z,13.63
2023-01-05T20:42:16.885Z,13.07
2023-01-05T20:43:51.429Z,12.18
2023-01-05T20:45:24.583Z,14.13
2023-01-05T20:46:57.910Z,18.27
2023-01-05T20:48:31.309Z,20.50
2023-01-05T20:50:06.300Z,24.50
2023-01-05T20:51:41.267Z,25.33
2023-01-05T20:53:15.987Z,18.33
2023-01-05T20:54:49.972Z,16.95
2023-01-05T20:56:26.453Z,14.40
2023-01-05T20:57:59.712Z,12.93
2023-01-05T20:59:35.353Z,14.40
2023-01-05T21:01:11.047Z,14.95
2023-01-05T21:02:45.534Z,14.75
2023-01-05T21:04:19.389Z,13.18
2023-01-05T21:05:52.691Z,15.95
2023-01-05T21:07:25.881Z,15.77
2023-01-05T21:09:01.708Z,13.20
2023-01-05T21:10:36.020Z,13.32
2023-01-05T21:12:09.719Z,12.05
2023-01-05T21:13:44.334Z,11.52
2023-01-05T21:15:18.018Z,13.95
2023-01-05T21:16:52.949Z,15.20
2023-01-05T21:18:26.780Z,14.48
2023-01-05T21:20:00.041Z,16.48
2023-01-05T21:21:34.695Z,15.30
2023-01-05T21:23:08.045Z,12.43
2023-01-05T21:24:42.676Z,13.30
2023-01-05T21:26:15.926Z,15.30
2023-01-05T21:27:49.711Z,16.98
2023-01-05T21:29:26.111Z,15.15